createdAt,value
2022-11-28T04:17:45.714Z,4.90
2022-11-28T04:21:02.547Z,4.89
2022-11-28T04:24:16.116Z,4.90
2022-11-28T04:27:32.969Z,4.90
2022-11-28T04:30:44.973Z,4.89
2022-11-28T04:33:59.424Z,4.88
2022-11-28T04:37:14.383Z,4.89
2022-11-28T04:40:26.946Z,4.88
2022-11-28T04:43:41.570Z,4.83
2022-11-28T04:46:53.942Z,4.81
2022-11-28T04:50:04.101Z,4.83
2022-11-28T04:53:19.956Z,4.83
2022-11-28T04:56:35.487Z,4.81
2022-11-28T04:59:46.232Z,4.81
2022-11-28T05:02:57.885Z,4.73
2022-11-28T05:06:10.190Z,4.75
2022-11-28T05:09:21.367Z,4.74
2022-11-28T05:12:31.294Z,4.76
2022-11-28T05:15:41.482Z,4.75
2022-11-28T05:18:51.653Z,4.72
2022-11-28T05:22:01.814Z,4.67
2022-11-28T05:25:13.158Z,4.67
2022-11-28T05:28:23.104Z,4.63
2022-11-28T05:31:33.176Z,4.55
2022-11-28T05:34:43.282Z,4.53
2022-11-28T05:37:53.339Z,4.43
2022-11-28T05:41:04.940Z,4.41
2022-11-28T05:44:14.889Z,4.38
2022-11-28T05:47:25.302Z,4.38
2022-11-28T05:50:39.769Z,4.34
2022-11-28T05:53:50.315Z,4.30
2022-11-28T05:57:02.877Z,4.31
2022-11-28T06:00:14.406Z,4.34
2022-11-28T07:23:15.648Z,4.33
2022-11-28T07:26:25.882Z,4.30
2022-11-28T07:29:37.068Z,4.27
2022-11-28T07:32:47.048Z,4.31
2022-11-28T07:36:01.739Z,4.30
2022-11-28T07:39:17.618Z,4.33
2022-11-28T07:42:28.580Z,4.35
2022-11-28T07:46:00.094Z,4.41
2022-11-28T07:49:11.645Z,4.56
2022-11-28T07:52:21.530Z,4.66
2022-11-28T07:55:36.508Z,4.73
2022-11-28T07:58:48.338Z,4.81
2022-11-28T08:01:58.375Z,4.89
2022-11-28T08:05:08.677Z,4.95
2022-11-28T08:08:19.662Z,4.99
2022-11-28T08:11:32.763Z,4.85
2022-11-28T08:14:43.045Z,4.91
2022-11-28T08:17:56.250Z,4.97
2022-11-28T08:21:07.975Z,5.04
2022-11-28T08:24:18.216Z,5.16
2022-11-28T08:27:30.548Z,5.24
2022-11-28T08:30:40.726Z,5.34
2022-11-28T08:33:52.160Z,5.43
2022-11-28T08:37:02.121Z,5.48
2022-11-28T08:40:12.988Z,5.51
2022-11-28T08:43:24.320Z,5.51
2022-11-28T08:46:34.811Z,5.48
2022-11-28T08:49:45.036Z,5.51
2022-11-28T08:52:55.200Z,5.64
2022-11-28T08:56:05.235Z,5.72
2022-11-28T08:59:16.797Z,5.79
2022-11-28T09:02:26.890Z,5.90
2022-11-28T09:05:36.834Z,5.91
2022-11-28T09:08:46.768Z,5.99
2022-11-28T09:11:56.697Z,6.04
2022-11-28T09:15:08.966Z,6.08
2022-11-28T09:18:19.247Z,6.19
2022-11-28T09:21:29.852Z,6.26
2022-11-28T09:24:40.288Z,6.34
2022-11-28T09:27:50.188Z,6.41
2022-11-28T09:31:03.637Z,6.52
2022-11-28T09:34:13.657Z,6.53
2022-11-28T09:37:23.639Z,6.57
2022-11-28T09:40:38.619Z,6.61
2022-11-28T09:43:54.718Z,6.71
2022-11-28T09:47:14.628Z,6.80
2022-11-28T09:50:28.230Z,6.85
2022-11-28T09:53:43.143Z,6.86
2022-11-28T09:56:53.192Z,6.84
2022-11-28T10:00:03.626Z,6.88
2022-11-28T10:03:37.267Z,6.86
2022-11-28T10:06:53.966Z,6.84
2022-11-28T10:10:15.428Z,6.87
2022-11-28T10:13:47.027Z,6.99
2022-11-28T10:17:11.852Z,7.00
2022-11-28T10:20:27.037Z,7.03
2022-11-28T10:23:43.375Z,7.00
2022-11-28T10:26:59.728Z,7.05
2022-11-28T10:30:16.677Z,7.11
2022-11-28T10:33:30.162Z,7.11
2022-11-28T10:36:52.938Z,7.20
2022-11-28T10:40:17.196Z,7.23
2022-11-28T10:43:38.502Z,7.33
2022-11-28T10:46:58.828Z,7.43
2022-11-28T10:50:16.239Z,7.40
2022-11-28T10:53:42.231Z,7.48
2022-11-28T10:57:01.176Z,7.52
2022-11-28T11:00:13.549Z,7.49
2022-11-28T11:03:29.182Z,7.55
2022-11-28T11:06:47.665Z,7.58
2022-11-28T11:10:16.125Z,7.62
2022-11-28T11:13:28.774Z,7.70
2022-11-28T11:16:49.648Z,7.73
2022-11-28T11:19:59.932Z,7.83
2022-11-28T11:23:17.746Z,7.98
2022-11-28T11:26:35.292Z,8.03
2022-11-28T11:29:48.225Z,8.14
2022-11-28T11:33:02.971Z,8.10
2022-11-28T11:36:26.705Z,8.08
2022-11-28T11:39:49.417Z,8.05
2022-11-28T11:43:02.171Z,7.95
2022-11-28T11:46:13.561Z,8.00
2022-11-28T11:49:30.899Z,8.08
2022-11-28T11:52:43.643Z,8.21
2022-11-28T11:55:55.716Z,8.26
2022-11-28T11:59:15.085Z,8.27
2022-11-28T12:02:32.425Z,8.23
2022-11-28T12:06:13.253Z,8.25
2022-11-28T12:09:28.867Z,8.26
2022-11-28T12:12:39.643Z,8.27
2022-11-28T12:16:00.309Z,8.17
2022-11-28T12:19:21.559Z,8.01
2022-11-28T12:22:40.441Z,7.91
2022-11-28T12:25:57.293Z,7.98
2022-11-28T12:29:26.025Z,8.09
2022-11-28T12:32:50.192Z,8.18
2022-11-28T12:36:10.709Z,8.11
2022-11-28T12:39:35.239Z,8.06
2022-11-28T12:42:58.294Z,7.89
2022-11-28T12:46:19.598Z,7.80
2022-11-28T12:49:39.239Z,7.75
2022-11-28T12:52:57.264Z,7.76
2022-11-28T12:56:13.773Z,7.57
2022-11-28T12:59:33.000Z,7.54
2022-11-28T13:02:57.160Z,7.65
2022-11-28T13:06:21.521Z,7.71
2022-11-28T13:09:54.783Z,7.78
2022-11-28T13:13:11.123Z,7.77
2022-11-28T13:16:27.741Z,7.72
2022-11-28T13:19:44.675Z,7.70
2022-11-28T13:23:04.474Z,7.64
2022-11-28T13:26:25.877Z,7.55
2022-11-28T13:29:43.387Z,7.56
2022-11-28T13:33:00.375Z,7.56
2022-11-28T13:39:49.424Z,7.43
2022-11-28T13:43:08.026Z,7.42
2022-11-28T13:46:18.614Z,7.48
2022-11-28T13:49:29.741Z,7.56
2022-11-28T13:52:43.820Z,7.60
2022-11-28T13:56:16.890Z,7.63
2022-11-28T13:59:28.347Z,7.69
2022-11-28T14:02:45.109Z,7.69
2022-11-28T14:05:59.599Z,7.62
2022-11-28T14:09:25.578Z,7.63
2022-11-28T14:12:44.269Z,7.55
2022-11-28T14:16:08.020Z,7.36
2022-11-28T14:19:29.942Z,7.27
2022-11-28T14:22:52.425Z,7.22
2022-11-28T14:26:02.748Z,7.09
2022-11-28T14:29:22.484Z,7.03
2022-11-28T14:32:37.697Z,7.00
2022-11-28T14:36:03.546Z,6.97
2022-11-28T14:39:33.746Z,6.95
2022-11-28T14:43:00.053Z,6.90
2022-11-28T14:46:23.874Z,6.81
2022-11-28T14:49:35.493Z,6.73
2022-11-28T14:52:46.501Z,6.70
2022-11-28T14:59:40.462Z,6.76
2022-11-28T15:03:05.654Z,6.79
2022-11-28T15:06:21.029Z,6.77
2022-11-28T15:09:37.526Z,6.79
2022-11-28T15:13:02.592Z,6.77
2022-11-28T15:16:15.099Z,6.81
2022-11-28T15:19:29.035Z,6.87
2022-11-28T15:22:43.195Z,6.93
2022-11-28T15:25:55.061Z,6.98
2022-11-28T15:29:10.686Z,6.95
2022-11-28T15:32:20.770Z,6.93
2022-11-28T15:35:31.906Z,6.93
2022-11-28T15:38:44.796Z,6.92
2022-11-28T15:41:56.981Z,6.91
2022-11-28T15:45:16.354Z,6.90
2022-11-28T15:48:29.347Z,6.90
2022-11-28T15:51:39.287Z,6.89
2022-11-28T15:54:51.700Z,6.88
2022-11-28T15:58:12.139Z,6.80
2022-11-28T16:01:23.756Z,6.76
2022-11-28T16:04:35.063Z,6.73
2022-11-28T16:07:46.029Z,6.73
2022-11-28T16:10:59.013Z,6.74
2022-11-28T16:14:12.048Z,6.74
2022-11-28T16:17:27.356Z,6.70
2022-11-28T16:20:39.240Z,6.70
2022-11-28T16:23:49.357Z,6.68
2022-11-28T16:27:02.851Z,6.70
2022-11-28T16:30:29.527Z,6.70
2022-11-28T16:33:41.438Z,6.63
2022-11-28T16:36:51.938Z,6.66
2022-11-28T16:40:05.959Z,6.68
2022-11-28T16:43:25.046Z,6.68
2022-11-28T16:46:37.702Z,6.68
2022-11-28T16:50:16.080Z,6.68
2022-11-28T16:53:44.568Z,6.69
2022-11-28T16:56:57.566Z,6.70
2022-11-28T17:00:10.481Z,6.69
2022-11-28T17:03:43.626Z,6.69
2022-11-28T17:06:55.415Z,6.70
2022-11-28T17:10:05.924Z,6.68
2022-11-28T17:13:17.485Z,6.68
2022-11-28T17:16:28.955Z,6.67
2022-11-28T17:19:38.872Z,6.65
2022-11-28T17:22:51.058Z,6.66
2022-11-28T17:26:00.885Z,6.67
2022-11-28T17:29:12.373Z,6.63
2022-11-28T17:32:23.608Z,6.64
2022-11-28T17:35:40.457Z,6.64
2022-11-28T17:38:50.487Z,6.62
2022-11-28T17:42:00.765Z,6.53
2022-11-28T17:45:16.780Z,6.55
2022-11-28T17:48:28.074Z,6.52
2022-11-28T17:51:38.209Z,6.51
2022-11-28T17:54:48.384Z,6.50
2022-11-28T17:57:58.393Z,6.49
2022-11-28T18:01:15.632Z,6.50
2022-11-28T18:04:26.930Z,6.52
2022-11-28T18:07:36.876Z,6.55
2022-11-28T18:10:46.966Z,6.56
2022-11-28T18:13:59.991Z,6.57
2022-11-28T18:17:10.330Z,6.53
2022-11-28T18:20:22.065Z,6.49
2022-11-28T18:23:31.992Z,6.50
2022-11-28T18:26:42.037Z,6.52
2022-11-28T18:29:52.516Z,6.52
2022-11-28T18:33:02.653Z,6.55
2022-11-28T18:36:16.740Z,6.51
2022-11-28T18:39:26.924Z,6.48
2022-11-28T18:42:37.955Z,6.45
2022-11-28T18:45:48.572Z,6.47
2022-11-28T18:48:59.831Z,6.50
2022-11-28T18:52:11.013Z,6.52
2022-11-28T18:55:21.100Z,6.53
2022-11-28T18:58:34.790Z,6.55
2022-11-28T19:01:44.944Z,6.57
2022-11-28T19:04:55.485Z,6.57
2022-11-28T19:08:07.061Z,6.57
2022-11-28T19:11:18.380Z,6.56
2022-11-28T19:14:30.159Z,6.56
2022-11-28T19:17:41.669Z,6.57
2022-11-28T19:20:51.714Z,6.57
2022-11-28T19:24:03.907Z,6.55
2022-11-28T19:27:14.847Z,6.50
2022-11-28T19:30:25.933Z,6.51
2022-11-28T19:33:36.374Z,6.49
2022-11-28T19:36:47.794Z,6.51
2022-11-28T19:40:02.528Z,6.49
2022-11-28T19:43:13.100Z,6.45
2022-11-28T19:46:23.220Z,6.45
2022-11-28T19:49:33.546Z,6.45
2022-11-28T19:52:44.998Z,6.45
2022-11-28T19:55:56.843Z,6.46
2022-11-28T19:59:06.964Z,6.46
2022-11-28T20:02:17.690Z,6.48
2022-11-28T20:05:27.808Z,6.46
2022-11-28T20:08:38.959Z,6.46
2022-11-28T20:11:50.795Z,6.43
2022-11-28T20:15:02.308Z,6.44
2022-11-28T20:18:12.347Z,6.45
2022-11-28T20:21:22.814Z,6.47
2022-11-28T20:24:33.008Z,6.49
2022-11-28T20:27:45.423Z,6.49
2022-11-28T20:30:55.430Z,6.50
2022-11-28T20:34:07.254Z,6.51
2022-11-28T20:37:17.198Z,6.51
2022-11-28T20:40:27.922Z,6.53
2022-11-28T20:43:40.624Z,6.55
2022-11-28T20:46:50.727Z,6.55
2022-11-28T20:50:00.734Z,6.55
2022-11-28T20:53:10.774Z,6.53
2022-11-28T20:56:22.404Z,6.53
2022-11-28T20:59:33.847Z,6.51
2022-11-28T21:02:45.808Z,6.47
